Time;durP1;ratioP1;P1;durP2;ratioP2;P2;SDS_P1;SDS_P2;PMS_P1;PMS_P2;Temp;Humidity;BMP_temperature;BMP_pressure;BME280_temperature;BME280_humidity;BME280_pressure;Samples;Min_cycle;Max_cycle;Signal;HPM_P1;HPM_P2
2022/01/05 00:00:32;;;;;;;3.90;2.13;;;;;;;3.87;100.00;94671.16;5044133;28;20479;-71
2022/01/05 00:02:57;;;;;;;4.35;2.70;;;;;;;3.81;100.00;94675.59;5045884;28;20460;-72
2022/01/05 00:05:23;;;;;;;3.53;1.70;;;;;;;3.75;100.00;94671.31;5026135;28;20462;-71
2022/01/05 00:07:48;;;;;;;1.35;0.60;;;;;;;3.59;100.00;94672.19;5047166;28;20033;-71
2022/01/05 00:10:14;;;;;;;2.10;0.77;;;;;;;3.38;100.00;94676.44;5046553;28;20094;-72
2022/01/05 00:12:40;;;;;;;1.80;0.80;;;;;;;3.42;100.00;94685.47;5045523;28;20583;-71
2022/01/05 00:15:06;;;;;;;1.88;0.85;;;;;;;3.38;100.00;94670.34;5044816;28;20417;-72
2022/01/05 00:17:32;;;;;;;1.40;0.60;;;;;;;3.35;100.00;94682.22;5027039;28;20035;-72
2022/01/05 00:19:57;;;;;;;2.30;0.73;;;;;;;3.36;100.00;94665.31;5047254;28;20420;-71
2022/01/05 00:22:23;;;;;;;3.25;0.80;;;;;;;3.35;100.00;94675.09;5046136;28;20095;-72
2022/01/05 00:24:49;;;;;;;2.35;0.93;;;;;;;3.36;100.00;94667.97;5047375;28;20036;-73
2022/01/05 00:27:15;;;;;;;1.65;0.80;;;;;;;3.33;100.00;94668.44;5044765;28;20043;-73
2022/01/05 00:29:40;;;;;;;1.90;0.90;;;;;;;3.34;100.00;94664.75;5028583;28;20116;-71
2022/01/05 00:32:07;;;;;;;1.83;0.70;;;;;;;3.34;100.00;94675.31;5044539;28;20436;-71
2022/01/05 00:34:33;;;;;;;1.70;0.70;;;;;;;3.32;100.00;94669.47;5047018;28;20041;-72
2022/01/05 00:36:58;;;;;;;2.42;1.00;;;;;;;3.31;100.00;94676.63;5046470;28;20040;-72
2022/01/05 00:39:24;;;;;;;2.70;1.30;;;;;;;3.33;100.00;94676.38;5046226;28;20065;-71
2022/01/05 00:41:49;;;;;;;1.17;0.63;;;;;;;3.18;100.00;94670.88;5044120;28;20045;-71
2022/01/05 00:44:15;;;;;;;4.68;1.33;;;;;;;3.01;100.00;94679.66;5046939;28;20053;-71
2022/01/05 00:46:40;;;;;;;1.20;0.60;;;;;;;2.96;100.00;94674.34;5045195;28;20108;-72
2022/01/05 00:49:06;;;;;;;1.80;0.90;;;;;;;2.76;100.00;94689.88;5045968;28;20082;-71
2022/01/05 00:51:32;;;;;;;1.05;0.55;;;;;;;2.36;100.00;94716.47;5044813;28;20115;-71
2022/01/05 00:53:57;;;;;;;1.10;0.57;;;;;;;1.98;100.00;94719.78;5043399;28;20044;-72
2022/01/05 00:56:22;;;;;;;0.60;0.32;;;;;;;1.70;100.00;94726.63;5043919;28;20543;-72
2022/01/05 00:58:48;;;;;;;2.85;0.95;;;;;;;1.41;100.00;94714.50;5045745;28;20126;-71
2022/01/05 01:01:13;;;;;;;1.48;0.40;;;;;;;1.35;100.00;94737.28;5045814;28;20588;-73
2022/01/05 01:03:39;;;;;;;1.38;0.50;;;;;;;1.14;100.00;94735.25;5045965;28;20029;-72
2022/01/05 01:06:05;;;;;;;6.03;0.68;;;;;;;1.09;100.00;94762.31;5045293;28;20047;-72
2022/01/05 01:08:31;;;;;;;1.52;0.60;;;;;;;0.97;100.00;94772.84;5044734;28;20586;-71
2022/01/05 01:10:57;;;;;;;2.38;0.60;;;;;;;0.88;100.00;94773.44;5045397;28;20037;-71
2022/01/05 01:13:23;;;;;;;0.70;0.43;;;;;;;0.77;100.00;94772.38;5045173;28;20052;-72
2022/01/05 01:15:50;;;;;;;1.88;0.77;;;;;;;0.72;100.00;94780.16;5045901;28;20768;-71
2022/01/05 01:18:18;;;;;;;0.70;0.40;;;;;;;0.82;100.00;94777.75;5044888;28;20411;-71
2022/01/05 01:20:45;;;;;;;2.50;0.75;;;;;;;0.82;100.00;94799.63;5045460;28;20119;-71
2022/01/05 01:23:11;;;;;;;2.03;0.80;;;;;;;0.70;100.00;94790.09;5044950;28;20491;-71
2022/01/05 01:25:40;;;;;;;1.48;0.70;;;;;;;0.74;100.00;94805.22;5044384;28;20040;-71
2022/01/05 01:28:06;;;;;;;2.38;0.90;;;;;;;0.71;100.00;94820.69;5045352;28;20039;-71
2022/01/05 01:30:33;;;;;;;1.67;0.60;;;;;;;0.69;100.00;94814.84;5044811;28;20438;-72
2022/01/05 01:32:59;;;;;;;2.13;0.77;;;;;;;0.58;100.00;94813.78;5045437;28;20056;-71
2022/01/05 01:35:25;;;;;;;3.40;1.05;;;;;;;0.55;100.00;94819.53;5050978;28;20466;-73
2022/01/05 01:37:55;;;;;;;2.15;0.68;;;;;;;0.52;100.00;94817.31;5053047;28;20032;-71
2022/01/05 01:40:20;;;;;;;2.08;0.60;;;;;;;0.47;100.00;94820.66;5048300;28;20041;-71
2022/01/05 01:42:46;;;;;;;2.92;0.98;;;;;;;0.50;100.00;94827.28;5046617;28;20039;-72
2022/01/05 01:45:12;;;;;;;2.28;0.90;;;;;;;0.48;100.00;94838.03;5046453;28;20383;-71
2022/01/05 01:47:38;;;;;;;3.03;0.80;;;;;;;0.44;100.00;94849.22;5046207;28;20039;-71
2022/01/05 01:50:03;;;;;;;0.77;0.40;;;;;;;0.41;100.00;94862.84;5044998;28;20091;-73
2022/01/05 01:52:29;;;;;;;2.70;1.00;;;;;;;0.39;100.00;94870.13;5045650;28;20968;-71
2022/01/05 01:54:55;;;;;;;3.70;0.80;;;;;;;0.37;100.00;94875.63;5045103;28;20033;-72
2022/01/05 01:57:21;;;;;;;4.35;0.80;;;;;;;0.37;100.00;94877.47;5046556;28;20782;-73
2022/01/05 01:59:48;;;;;;;7.40;1.02;;;;;;;0.42;100.00;94881.03;5047444;28;20124;-71
2022/01/05 02:02:15;;;;;;;0.63;0.43;;;;;;;0.41;100.00;94886.53;5046451;28;20037;-71
2022/01/05 02:04:43;;;;;;;3.08;0.60;;;;;;;0.35;100.00;94887.41;5043995;28;20124;-73
2022/01/05 02:07:09;;;;;;;2.03;0.82;;;;;;;0.25;100.00;94891.38;5044737;28;20167;-73
2022/01/05 02:09:37;;;;;;;90.53;2.72;;;;;;;0.30;100.00;94893.34;5047167;28;20049;-72
2022/01/05 02:12:05;;;;;;;7.50;0.90;;;;;;;0.30;100.00;94893.34;5044847;28;20113;-71
2022/01/05 02:14:30;;;;;;;0.50;0.30;;;;;;;0.19;100.00;94886.19;5046752;28;20049;-71
2022/01/05 02:16:58;;;;;;;0.50;0.30;;;;;;;0.11;100.00;94902.28;5044562;28;20040;-71
2022/01/05 02:19:24;;;;;;;1.33;0.70;;;;;;;0.06;100.00;94902.94;5045432;28;20350;-72
2022/01/05 02:21:49;;;;;;;1.10;0.52;;;;;;;0.08;100.00;94900.09;5045814;28;20388;-71
2022/01/05 02:24:15;;;;;;;0.55;0.32;;;;;;;0.06;100.00;94910.03;5045135;28;20039;-71
2022/01/05 02:26:41;;;;;;;29.05;1.33;;;;;;;0.08;100.00;94914.06;5044784;28;20041;-72
2022/01/05 02:29:07;;;;;;;1.30;0.75;;;;;;;-0.01;100.00;94921.41;5044114;28;20037;-71
2022/01/05 02:31:33;;;;;;;1.25;0.60;;;;;;;-0.06;100.00;94920.50;5045201;28;20048;-73
2022/01/05 02:33:58;;;;;;;1.60;0.63;;;;;;;-0.10;100.00;94914.84;5044019;28;20576;-71
2022/01/05 02:36:24;;;;;;;1.05;0.40;;;;;;;-0.11;100.00;94915.88;5043371;28;20048;-72
2022/01/05 02:38:51;;;;;;;1.88;0.80;;;;;;;-0.08;100.00;94925.16;5043429;28;20170;-73
2022/01/05 02:41:17;;;;;;;2.90;0.60;;;;;;;-0.14;100.00;94932.09;5044159;28;20435;-73
2022/01/05 02:43:45;;;;;;;1.17;0.60;;;;;;;-0.13;100.00;94930.28;5045584;28;20036;-73
2022/01/05 02:46:12;;;;;;;1.35;0.63;;;;;;;-0.19;100.00;94925.88;5045064;28;20509;-72
2022/01/05 02:48:39;;;;;;;2.55;0.73;;;;;;;-0.19;100.00;94931.16;5043060;28;20467;-71
2022/01/05 02:51:05;;;;;;;1.17;0.60;;;;;;;-0.18;100.00;94940.63;5043659;28;20133;-73
2022/01/05 02:53:31;;;;;;;1.30;0.70;;;;;;;-0.21;100.00;94955.03;5043571;28;20125;-72
2022/01/05 02:55:57;;;;;;;3.85;1.00;;;;;;;-0.20;100.00;94956.63;5044891;28;20074;-72
2022/01/05 02:58:22;;;;;;;1.45;0.70;;;;;;;-0.26;100.00;94951.44;5045890;28;20491;-72
2022/01/05 03:00:48;;;;;;;3.33;0.88;;;;;;;-0.24;100.00;94952.03;5045252;28;20128;-70
2022/01/05 03:03:14;;;;;;;2.25;1.05;;;;;;;-0.23;100.00;94954.44;5042892;28;20127;-71
2022/01/05 03:05:40;;;;;;;1.63;1.05;;;;;;;-0.26;100.00;94948.81;5046124;28;20495;-71
2022/01/05 03:08:05;;;;;;;3.97;1.08;;;;;;;-0.24;100.00;94962.53;5042163;28;20095;-71
2022/01/05 03:10:31;;;;;;;2.10;0.80;;;;;;;-0.29;100.00;94960.56;5046088;28;20056;-72
2022/01/05 03:12:56;;;;;;;9.35;1.15;;;;;;;-0.27;100.00;94953.28;5044812;28;20025;-71
2022/01/05 03:15:22;;;;;;;6.68;1.77;;;;;;;-0.25;100.00;94955.66;5043720;28;20476;-71
2022/01/05 03:17:47;;;;;;;5.93;1.70;;;;;;;-0.19;100.00;94944.28;5042769;28;20112;-72
2022/01/05 03:20:14;;;;;;;32.85;2.28;;;;;;;-0.15;100.00;94948.09;5043497;28;20433;-71
2022/01/05 03:22:40;;;;;;;11.88;1.98;;;;;;;-0.11;100.00;94950.06;5043836;28;20041;-72
2022/01/05 03:25:08;;;;;;;6.95;1.65;;;;;;;-0.12;100.00;94947.66;5045060;28;20095;-71
2022/01/05 03:27:33;;;;;;;6.30;1.45;;;;;;;-0.21;100.00;94943.72;5042856;28;20041;-73
2022/01/05 03:29:59;;;;;;;11.68;2.13;;;;;;;-0.22;100.00;94957.88;5046068;28;20085;-72
2022/01/05 03:32:28;;;;;;;4.80;1.48;;;;;;;-0.26;100.00;94969.84;5009151;28;20041;-72
2022/01/05 03:34:54;;;;;;;5.47;1.58;;;;;;;-0.29;100.00;94976.34;5042109;28;20131;-72
2022/01/05 03:37:21;;;;;;;6.32;1.55;;;;;;;-0.32;100.00;94971.50;5021037;28;20611;-71
2022/01/05 03:39:47;;;;;;;7.05;1.92;;;;;;;-0.32;100.00;94985.44;5044850;28;20487;-73
2022/01/05 03:42:12;;;;;;;4.38;2.33;;;;;;;-0.28;100.00;94997.16;5044228;28;20033;-71
2022/01/05 03:44:38;;;;;;;6.03;2.05;;;;;;;-0.35;100.00;94988.53;5042095;28;20047;-73
2022/01/05 03:47:04;;;;;;;6.75;1.92;;;;;;;-0.36;100.00;94997.44;5041709;28;20119;-71
2022/01/05 03:49:29;;;;;;;6.30;2.92;;;;;;;-0.37;100.00;95011.59;5043907;28;20037;-71
2022/01/05 03:51:55;;;;;;;3.17;1.60;;;;;;;-0.39;100.00;95029.41;5042000;28;20051;-71
2022/01/05 03:54:20;;;;;;;5.13;2.70;;;;;;;-0.38;100.00;95017.88;5042406;28;20387;-71
2022/01/05 03:56:46;;;;;;;4.68;1.95;;;;;;;-0.44;100.00;95010.84;5041659;28;20040;-71
2022/01/05 03:59:11;;;;;;;2.47;1.58;;;;;;;-0.42;100.00;95021.13;5043137;28;20090;-71
2022/01/05 04:01:36;;;;;;;5.70;2.00;;;;;;;-0.44;100.00;95029.25;5042858;28;20080;-72
2022/01/05 04:04:02;;;;;;;3.60;1.65;;;;;;;-0.44;100.00;95041.59;5043268;28;20080;-72
2022/01/05 04:06:28;;;;;;;4.03;2.33;;;;;;;-0.47;100.00;95042.78;5042920;28;20512;-72
2022/01/05 04:08:53;;;;;;;6.05;3.42;;;;;;;-0.47;100.00;95042.78;5044002;28;20943;-71
2022/01/05 04:11:19;;;;;;;11.18;4.50;;;;;;;-0.42;100.00;95063.19;5042504;28;20037;-71
2022/01/05 04:13:53;;;;;;;4.50;2.55;;;;;;;-0.44;100.00;95063.41;3359495;28;10021588;-71
2022/01/05 04:16:19;;;;;;;10.50;5.30;;;;;;;-0.43;100.00;95061.59;2258829;28;10001723;-71
2022/01/05 04:18:44;;;;;;;9.27;3.83;;;;;;;-0.39;100.00;95068.84;5042853;28;20052;-71
2022/01/05 04:21:10;;;;;;;12.02;4.88;;;;;;;-0.40;100.00;95072.47;5042921;28;20064;-71
2022/01/05 04:23:35;;;;;;;13.05;3.28;;;;;;;-0.41;100.00;95081.38;5026485;28;20041;-71
2022/01/05 04:26:01;;;;;;;9.57;4.22;;;;;;;-0.42;100.00;95074.50;5041107;28;20072;-72
2022/01/05 04:28:26;;;;;;;9.35;3.53;;;;;;;-0.44;100.00;95081.81;5042972;28;20048;-71
2022/01/05 04:30:52;;;;;;;9.68;4.70;;;;;;;-0.39;100.00;95089.03;5042403;28;20148;-73
2022/01/05 04:33:17;;;;;;;16.58;5.13;;;;;;;-0.38;100.00;95086.22;5042420;28;20025;-71
2022/01/05 04:35:42;;;;;;;3.95;2.35;;;;;;;-0.43;100.00;95099.19;5042546;28;20584;-72
2022/01/05 04:38:08;;;;;;;16.20;5.15;;;;;;;-0.45;100.00;95103.06;5023378;28;20052;-72
2022/01/05 04:40:33;;;;;;;11.13;3.25;;;;;;;-0.48;100.00;95101.63;5039985;28;20041;-73
2022/01/05 04:42:59;;;;;;;7.03;3.38;;;;;;;-0.47;100.00;95102.44;5040374;28;20023;-73
2022/01/05 04:45:24;;;;;;;8.95;4.93;;;;;;;-0.46;100.00;95098.81;5041159;28;20543;-71
2022/01/05 04:47:50;;;;;;;4.78;2.50;;;;;;;-0.47;100.00;95105.88;5043096;28;20380;-71
2022/01/05 04:50:15;;;;;;;9.55;3.15;;;;;;;-0.51;100.00;95128.34;5045458;28;20033;-72
2022/01/05 04:52:42;;;;;;;7.03;2.95;;;;;;;-0.54;100.00;95122.69;5045199;28;20029;-71
2022/01/05 04:55:09;;;;;;;8.98;3.90;;;;;;;-0.64;100.00;95128.41;5042953;28;20045;-71
2022/01/05 04:57:34;;;;;;;5.60;2.70;;;;;;;-0.69;100.00;95118.56;5045343;28;20430;-71
2022/01/05 05:00:00;;;;;;;9.50;3.38;;;;;;;-0.72;100.00;95137.34;5047396;28;20383;-71
2022/01/05 05:02:28;;;;;;;4.70;2.42;;;;;;;-0.72;100.00;95136.56;5046701;28;20044;-70
2022/01/05 05:04:53;;;;;;;7.18;2.97;;;;;;;-0.72;100.00;95132.09;5048728;28;20485;-71
2022/01/05 05:07:20;;;;;;;38.88;3.20;;;;;;;-0.68;100.00;95148.25;5045569;28;20143;-71
2022/01/05 05:09:45;;;;;;;8.27;3.63;;;;;;;-0.70;100.00;95158.16;5047812;28;20044;-71
2022/01/05 05:12:11;;;;;;;11.77;2.85;;;;;;;-0.76;100.00;95157.19;5045415;28;20364;-71
2022/01/05 05:14:36;;;;;;;8.48;2.25;;;;;;;-0.78;100.00;95164.47;5047205;28;20044;-71
2022/01/05 05:17:02;;;;;;;3.95;1.50;;;;;;;-0.72;100.00;95173.34;5045087;28;20040;-72
2022/01/05 05:19:28;;;;;;;9.45;2.67;;;;;;;-0.73;100.00;95166.47;5045998;28;20033;-73
2022/01/05 05:21:54;;;;;;;13.82;3.00;;;;;;;-0.75;100.00;95173.75;5046138;28;20106;-72
2022/01/05 05:24:19;;;;;;;10.13;2.92;;;;;;;-0.76;100.00;95172.16;5045529;28;20363;-73
2022/01/05 05:26:45;;;;;;;6.43;2.58;;;;;;;-0.81;100.00;95175.38;5044237;28;20440;-72
2022/01/05 05:29:10;;;;;;;21.35;4.57;;;;;;;-0.87;100.00;95171.78;5044149;28;20036;-71
2022/01/05 05:31:36;;;;;;;4.03;1.77;;;;;;;-0.91;100.00;95175.03;5045039;28;20369;-72
2022/01/05 05:34:01;;;;;;;9.25;2.22;;;;;;;-0.96;100.00;95165.16;5043997;28;20033;-73
2022/01/05 05:36:27;;;;;;;9.07;3.38;;;;;;;-0.99;100.00;95178.69;5044805;28;20427;-71
2022/01/05 05:38:52;;;;;;;8.30;2.22;;;;;;;-0.96;100.00;95166.97;5041397;28;20033;-73
2022/01/05 05:41:18;;;;;;;12.93;2.50;;;;;;;-0.95;100.00;95181.72;5044268;28;20388;-71
2022/01/05 05:43:44;;;;;;;4.30;1.95;;;;;;;-0.97;100.00;95171.41;5041942;28;20045;-70
2022/01/05 05:46:10;;;;;;;10.38;2.33;;;;;;;-0.98;100.00;95169.81;5042813;28;20060;-73
2022/01/05 05:48:35;;;;;;;4.57;2.05;;;;;;;-0.94;100.00;95167.56;5045064;28;20045;-71
2022/01/05 05:51:01;;;;;;;4.28;1.30;;;;;;;-1.00;100.00;95187.59;5046518;28;20033;-71
2022/01/05 05:53:26;;;;;;;9.27;2.88;;;;;;;-1.02;100.00;95180.91;5044414;28;20035;-72
2022/01/05 05:55:52;;;;;;;6.70;3.10;;;;;;;-0.99;100.00;95194.47;5043847;28;20048;-71
2022/01/05 05:58:17;;;;;;;7.07;1.80;;;;;;;-0.99;100.00;95210.22;5044578;28;20158;-71
2022/01/05 06:00:43;;;;;;;5.05;2.10;;;;;;;-1.04;100.00;95202.13;5045498;28;20480;-71
2022/01/05 06:03:08;;;;;;;8.38;3.50;;;;;;;-1.05;100.00;95208.41;5045441;28;20037;-72
2022/01/05 06:05:34;;;;;;;8.98;2.72;;;;;;;-1.04;100.00;95198.72;5045626;28;20958;-71
2022/01/05 06:07:59;;;;;;;5.70;2.25;;;;;;;-1.10;100.00;95216.09;5044796;28;20033;-71
2022/01/05 06:10:25;;;;;;;13.68;3.95;;;;;;;-1.11;100.00;95206.59;5046372;28;20105;-72
2022/01/05 06:12:50;;;;;;;19.65;2.90;;;;;;;-1.11;100.00;95203.97;5045902;28;20173;-71
2022/01/05 06:15:16;;;;;;;5.22;1.67;;;;;;;-1.09;100.00;95222.94;5048210;28;20110;-72
2022/01/05 06:17:42;;;;;;;18.38;3.97;;;;;;;-1.11;100.00;95227.59;5047146;28;20032;-71
2022/01/05 06:20:10;;;;;;;11.93;2.72;;;;;;;-1.17;100.00;95226.63;5045221;28;20044;-72
2022/01/05 06:22:41;;;;;;;11.90;2.60;;;;;;;-1.26;100.00;95248.03;5045293;28;20419;-71
2022/01/05 06:25:08;;;;;;;5.88;2.33;;;;;;;-1.21;100.00;95233.28;5045557;28;20161;-71
2022/01/05 06:27:34;;;;;;;16.40;3.33;;;;;;;-1.11;100.00;95232.84;5045620;28;20492;-73
2022/01/05 06:30:04;;;;;;;16.13;3.03;;;;;;;-1.10;100.00;95239.72;5046289;28;20037;-71
2022/01/05 06:32:30;;;;;;;8.07;2.00;;;;;;;-1.13;100.00;95245.38;5045877;28;20033;-72
2022/01/05 06:34:56;;;;;;;3.88;2.00;;;;;;;-1.20;100.00;95252.47;5044502;28;20040;-71
2022/01/05 06:37:21;;;;;;;7.30;3.28;;;;;;;-1.19;100.00;95262.75;5044551;28;20180;-72
2022/01/05 06:39:47;;;;;;;9.73;3.55;;;;;;;-1.29;100.00;95253.69;5046351;28;20052;-72
2022/01/05 06:42:12;;;;;;;18.70;2.92;;;;;;;-1.33;100.00;95261.16;5044797;28;20106;-71
2022/01/05 06:44:38;;;;;;;6.03;2.33;;;;;;;-1.39;100.00;95277.75;5044475;28;20040;-73
2022/01/05 06:47:04;;;;;;;11.13;2.85;;;;;;;-1.36;100.00;95269.44;5043905;28;20059;-72
2022/01/05 06:49:29;;;;;;;15.38;4.10;;;;;;;-1.30;100.00;95276.50;5044547;28;20032;-72
2022/01/05 06:51:55;;;;;;;23.92;2.88;;;;;;;-1.31;100.00;95274.09;5044356;28;20033;-72
2022/01/05 06:54:20;;;;;;;8.57;2.95;;;;;;;-1.30;100.00;95281.75;5044201;28;20041;-73
2022/01/05 06:56:46;;;;;;;14.93;3.97;;;;;;;-1.28;100.00;95284.19;5025492;28;20045;-73
2022/01/05 06:59:13;;;;;;;6.05;2.15;;;;;;;-1.28;100.00;95292.06;5045453;28;20024;-71
2022/01/05 07:01:39;;;;;;;20.58;3.22;;;;;;;-1.27;100.00;95291.84;5044851;28;20049;-72
2022/01/05 07:04:04;;;;;;;19.60;4.20;;;;;;;-1.36;100.00;95293.06;5044711;28;20032;-71
2022/01/05 07:06:30;;;;;;;20.58;4.10;;;;;;;-1.38;100.00;95300.34;5045494;28;20039;-72
2022/01/05 07:08:55;;;;;;;7.60;2.78;;;;;;;-1.47;100.00;95291.06;5043869;28;20128;-71
2022/01/05 07:11:20;;;;;;;19.67;2.88;;;;;;;-1.36;100.00;95305.38;5042125;28;20068;-72
2022/01/05 07:13:46;;;;;;;4.70;1.73;;;;;;;-1.36;100.00;95310.63;5045236;28;20442;-72
2022/01/05 07:16:11;;;;;;;26.25;5.20;;;;;;;-1.32;100.00;95320.53;5044179;28;20476;-71
2022/01/05 07:18:37;;;;;;;15.20;3.80;;;;;;;-1.29;100.00;95329.81;5043281;28;20730;-71
2022/01/05 07:21:02;;;;;;;32.67;4.05;;;;;;;-1.27;100.00;95327.78;5042635;28;20035;-71
2022/01/05 07:23:28;;;;;;;13.18;3.67;;;;;;;-1.23;100.00;95329.00;5045160;28;20039;-72
2022/01/05 07:25:53;;;;;;;4.68;1.50;;;;;;;-1.22;100.00;95341.13;5042599;28;20039;-71
2022/01/05 07:28:19;;;;;;;6.38;1.80;;;;;;;-1.19;100.00;95340.72;5043314;28;20037;-71
2022/01/05 07:30:44;;;;;;;19.67;3.28;;;;;;;-1.22;100.00;95338.50;5043558;28;20061;-72
2022/01/05 07:33:10;;;;;;;17.65;3.45;;;;;;;-1.22;100.00;95341.94;5043712;28;20032;-71
2022/01/05 07:35:35;;;;;;;6.60;1.75;;;;;;;-1.19;100.00;95344.13;5044618;28;20033;-71
2022/01/05 07:38:01;;;;;;;9.07;2.97;;;;;;;-1.19;100.00;95345.97;5026647;28;20039;-72
2022/01/05 07:40:26;;;;;;;15.52;3.25;;;;;;;-1.18;100.00;95348.38;5043587;28;20597;-72
2022/01/05 07:42:52;;;;;;;16.05;3.45;;;;;;;-1.15;100.00;95350.63;5044928;28;20041;-72
2022/01/05 07:45:18;;;;;;;11.93;2.15;;;;;;;-1.07;100.00;95354.06;5044280;28;20047;-72
2022/01/05 07:47:43;;;;;;;15.82;2.92;;;;;;;-1.00;100.00;95352.22;5045932;28;20122;-72
2022/01/05 07:50:14;;;;;;;18.98;4.18;;;;;;;-1.08;100.00;95353.25;5047106;28;20033;-72
2022/01/05 07:52:41;;;;;;;23.92;3.05;;;;;;;-1.25;100.00;95357.25;5045248;28;20086;-72
2022/01/05 07:55:07;;;;;;;10.82;1.92;;;;;;;-1.27;100.00;95354.03;5041948;28;20090;-72
2022/01/05 07:57:34;;;;;;;34.10;5.60;;;;;;;-1.15;100.00;95358.50;5043596;28;20048;-72
2022/01/05 07:59:59;;;;;;;11.52;2.60;;;;;;;-1.13;100.00;95364.34;5043186;28;20434;-72
2022/01/05 08:02:25;;;;;;;14.57;2.42;;;;;;;-1.08;100.00;95366.38;5043719;28;20124;-72
2022/01/05 08:04:50;;;;;;;14.40;2.53;;;;;;;-1.01;100.00;95367.19;5044842;28;20041;-72
2022/01/05 08:07:16;;;;;;;21.30;2.13;;;;;;;-1.01;100.00;95375.06;5041316;28;20028;-72
2022/01/05 08:09:42;;;;;;;15.35;1.95;;;;;;;-1.08;100.00;95374.25;5044236;28;20384;-72
2022/01/05 08:12:08;;;;;;;16.30;2.03;;;;;;;-1.10;100.00;95371.00;5041717;28;20578;-72
2022/01/05 08:14:34;;;;;;;14.55;2.45;;;;;;;-1.14;100.00;95375.06;5044358;28;20032;-73
2022/01/05 08:16:59;;;;;;;4.15;1.05;;;;;;;-1.12;100.00;95380.91;5043424;28;20044;-72
2022/01/05 08:19:24;;;;;;;6.55;1.30;;;;;;;-1.11;100.00;95377.25;5045948;28;20029;-72
2022/01/05 08:21:50;;;;;;;16.17;3.45;;;;;;;-1.10;100.00;95378.88;5045004;28;20433;-72
2022/01/05 08:24:16;;;;;;;11.27;2.25;;;;;;;-1.11;100.00;95372.00;5047553;28;20044;-72
2022/01/05 08:26:41;;;;;;;6.25;1.75;;;;;;;-1.13;100.00;95397.66;5049129;28;20086;-72
2022/01/05 08:29:07;;;;;;;13.45;3.45;;;;;;;-1.09;100.00;95377.84;5048425;28;20040;-73
2022/01/05 08:31:32;;;;;;;6.82;1.27;;;;;;;-1.12;100.00;95378.28;5049228;28;20044;-72
2022/01/05 08:33:59;;;;;;;18.10;1.92;;;;;;;-1.13;100.00;95390.59;5048057;28;20142;-72
2022/01/05 08:36:25;;;;;;;9.93;1.90;;;;;;;-1.14;100.00;95378.47;5045847;28;20048;-72
2022/01/05 08:38:51;;;;;;;17.33;2.80;;;;;;;-1.09;100.00;95384.94;5048115;28;20376;-72
2022/01/05 08:41:17;;;;;;;16.10;3.38;;;;;;;-1.13;100.00;95382.72;5045303;28;20033;-72
2022/01/05 08:43:42;;;;;;;18.65;3.10;;;;;;;-1.10;100.00;95394.63;5048131;28;20036;-72
2022/01/05 08:46:07;;;;;;;9.60;1.95;;;;;;;-1.04;100.00;95399.09;5047791;28;20043;-72
2022/01/05 08:48:33;;;;;;;12.50;3.20;;;;;;;-1.11;100.00;95400.91;5045773;28;20125;-72
2022/01/05 08:50:59;;;;;;;13.55;2.97;;;;;;;-1.12;100.00;95401.91;5046203;28;20110;-72
2022/01/05 08:53:25;;;;;;;8.68;2.30;;;;;;;-1.08;100.00;95400.50;5045772;28;20041;-72
2022/01/05 08:55:51;;;;;;;19.77;3.92;;;;;;;-1.03;100.00;95403.31;5047678;28;20036;-72
2022/01/05 08:58:18;;;;;;;8.57;2.08;;;;;;;-1.05;100.00;95421.09;5044998;28;20040;-72
2022/01/05 09:00:44;;;;;;;27.73;2.30;;;;;;;-0.97;100.00;95428.78;5044855;28;20041;-72
2022/01/05 09:03:13;;;;;;;12.57;2.75;;;;;;;-0.96;100.00;95417.25;5047505;28;20044;-72
2022/01/05 09:05:39;;;;;;;14.95;4.30;;;;;;;-0.96;100.00;95429.59;5047799;28;20044;-72
2022/01/05 09:08:05;;;;;;;20.33;3.53;;;;;;;-0.89;100.00;95431.22;5043162;28;20629;-72
2022/01/05 09:10:32;;;;;;;22.95;4.43;;;;;;;-0.91;100.00;95421.91;5046168;28;20045;-72
2022/01/05 09:12:58;;;;;;;11.30;1.83;;;;;;;-0.85;100.00;95426.38;5029715;28;20738;-73
2022/01/05 09:15:25;;;;;;;19.40;3.15;;;;;;;-0.81;100.00;95434.66;5046493;28;20480;-72
2022/01/05 09:17:51;;;;;;;4.15;1.08;;;;;;;-0.83;100.00;95441.94;5047253;28;20040;-73
2022/01/05 09:20:17;;;;;;;16.25;1.77;;;;;;;-0.86;100.00;95430.81;5046523;28;20545;-72
2022/01/05 09:22:42;;;;;;;9.52;1.92;;;;;;;-0.80;100.00;95441.50;5045626;28;20045;-71
2022/01/05 09:25:10;;;;;;;11.18;2.53;;;;;;;-0.80;100.00;95426.56;5046376;28;20072;-72
2022/01/05 09:27:36;;;;;;;9.77;1.67;;;;;;;-0.79;100.00;95443.13;5046494;28;20045;-72
2022/01/05 09:30:04;;;;;;;8.70;1.65;;;;;;;-0.85;100.00;95440.31;5047340;28;20116;-74
2022/01/05 09:32:32;;;;;;;12.73;1.08;;;;;;;-0.78;100.00;95436.84;5046160;28;20036;-72
2022/01/05 09:34:57;;;;;;;18.67;2.10;;;;;;;-0.81;100.00;95442.53;5043952;28;20037;-72
2022/01/05 09:37:32;;;;;;;13.50;2.55;;;;;;;-0.80;100.00;95437.06;5044892;28;20039;-72
2022/01/05 09:42:42;;;;;;;8.57;2.38;;;;;;;-0.68;100.00;95447.78;5046474;28;20029;-73
2022/01/05 09:45:10;;;;;;;5.63;1.33;;;;;;;-0.67;100.00;95458.09;5046810;28;20057;-72
2022/01/05 09:47:51;;;;;;;10.10;2.33;;;;;;;-0.58;100.00;95453.44;5044988;28;20349;-72
2022/01/05 09:50:18;;;;;;;4.53;1.92;;;;;;;-0.69;100.00;95451.44;5046141;28;20037;-72
2022/01/05 09:52:46;;;;;;;5.32;2.33;;;;;;;-0.64;100.00;95468.19;5046968;28;20029;-72
2022/01/05 09:55:16;;;;;;;12.02;2.30;;;;;;;-0.59;100.00;95443.94;5046661;28;20040;-72
2022/01/05 09:57:43;;;;;;;9.30;2.22;;;;;;;-0.53;100.00;95455.47;5046589;28;20049;-73
2022/01/05 10:00:12;;;;;;;10.25;2.50;;;;;;;-0.50;100.00;95445.34;5047064;28;20036;-73
2022/01/05 10:02:42;;;;;;;11.27;1.92;;;;;;;-0.46;100.00;95451.00;5047110;28;20041;-72
2022/01/05 10:05:12;;;;;;;5.03;2.17;;;;;;;-0.46;100.00;95453.66;5045899;28;20041;-72
2022/01/05 10:07:38;;;;;;;11.50;1.35;;;;;;;-0.46;100.00;95451.81;5044328;28;20032;-72
2022/01/05 10:10:05;;;;;;;13.10;3.45;;;;;;;-0.36;100.00;95449.56;5046233;28;20051;-72
2022/01/05 10:12:31;;;;;;;22.13;2.70;;;;;;;-0.31;100.00;95444.53;5044476;28;20384;-73
2022/01/05 10:14:57;;;;;;;16.77;2.50;;;;;;;-0.32;100.00;95463.09;5044910;28;20044;-71
2022/01/05 10:17:25;;;;;;;8.63;1.63;;;;;;;-0.36;100.00;95448.78;5044978;28;20432;-71
2022/01/05 10:19:59;;;;;;;6.57;1.35;;;;;;;-0.31;100.00;95455.03;5044718;28;20045;-72
2022/01/05 10:22:40;;;;;;;11.98;1.95;;;;;;;-0.29;100.00;95449.56;5045043;28;20079;-72
2022/01/05 10:25:13;;;;;;;11.25;2.10;;;;;;;-0.30;100.00;95466.34;5039129;28;20048;-71
2022/01/05 10:27:39;;;;;;;8.52;0.98;;;;;;;-0.21;100.00;95464.31;5044631;28;20371;-71
2022/01/05 10:30:13;;;;;;;4.93;1.25;;;;;;;-0.18;100.00;95469.16;5044680;28;20029;-72
2022/01/05 10:32:43;;;;;;;15.27;2.70;;;;;;;-0.28;100.00;95464.31;5044557;28;20040;-72
2022/01/05 10:35:10;;;;;;;16.48;2.28;;;;;;;-0.31;100.00;95460.28;5044436;28;20223;-71
2022/01/05 10:37:39;;;;;;;5.03;0.95;;;;;;;-0.33;100.00;95466.75;5044591;28;20343;-72
2022/01/05 10:40:12;;;;;;;9.40;1.60;;;;;;;-0.36;100.00;95478.50;5044250;28;20380;-72
2022/01/05 10:42:39;;;;;;;5.13;1.77;;;;;;;-0.24;100.00;95456.81;5045608;28;20268;-72
2022/01/05 10:45:08;;;;;;;11.15;2.25;;;;;;;-0.08;100.00;95457.22;5044909;28;20041;-72
2022/01/05 10:47:34;;;;;;;3.75;1.60;;;;;;;-0.09;100.00;95463.47;5042908;28;20033;-72
2022/01/05 10:50:00;;;;;;;5.18;1.50;;;;;;;-0.06;100.00;95460.44;5044108;28;20076;-72
2022/01/05 10:52:31;;;;;;;11.77;1.98;;;;;;;-0.07;100.00;95460.66;5045135;28;20136;-72
2022/01/05 10:55:10;;;;;;;4.65;1.27;;;;;;;-0.14;100.00;95451.97;5044996;28;20527;-72
2022/01/05 10:57:36;;;;;;;20.25;2.45;;;;;;;0.03;100.00;95457.59;5043198;28;20114;-72
2022/01/05 11:00:04;;;;;;;12.23;2.40;;;;;;;0.09;100.00;95456.75;5033191;28;20072;-72
2022/01/05 11:02:32;;;;;;;8.90;1.90;;;;;;;0.12;100.00;95467.66;5044198;28;20048;-72
2022/01/05 11:05:01;;;;;;;5.10;1.27;;;;;;;0.23;100.00;95453.88;5045601;28;20128;-72
2022/01/05 11:07:31;;;;;;;5.35;1.55;;;;;;;0.24;100.00;95442.34;5044296;28;20044;-73
2022/01/05 11:10:05;;;;;;;5.43;1.75;;;;;;;0.34;100.00;95446.34;5029023;28;20033;-72
2022/01/05 11:12:45;;;;;;;23.50;2.35;;;;;;;0.42;100.00;95448.75;5044666;28;20064;-71
2022/01/05 11:15:19;;;;;;;19.88;2.47;;;;;;;0.61;100.00;95445.19;5043858;28;20304;-72
2022/01/05 11:18:05;;;;;;;5.60;1.50;;;;;;;0.63;100.00;95460.81;5044449;28;20106;-72
2022/01/05 11:20:31;;;;;;;2.67;1.35;;;;;;;0.77;100.00;95457.84;5043860;28;20035;-72
2022/01/05 11:22:56;;;;;;;6.30;1.52;;;;;;;0.80;100.00;95443.47;5043494;28;20033;-71